createdAt,value
2018-06-03T00:00:03.042Z,88.00
2018-06-03T00:02:31.570Z,88.00
2018-06-03T00:05:00.081Z,87.90
2018-06-03T00:07:28.595Z,88.10
2018-06-03T00:12:25.326Z,88.20
2018-06-03T00:14:53.839Z,88.10
2018-06-03T00:17:22.379Z,88.20
2018-06-03T00:19:50.922Z,88.50
2018-06-03T00:22:28.699Z,88.40
2018-06-03T00:24:57.243Z,88.70
2018-06-03T00:27:25.928Z,88.70
2018-06-03T00:29:54.461Z,89.10
2018-06-03T00:32:22.991Z,88.70
2018-06-03T00:34:51.564Z,88.70
2018-06-03T00:37:20.103Z,88.60
2018-06-03T00:39:48.597Z,88.70
2018-06-03T00:42:17.151Z,88.90
2018-06-03T00:44:45.667Z,89.00
2018-06-03T00:47:14.166Z,88.70
2018-06-03T00:49:42.682Z,89.00
2018-06-03T00:52:11.199Z,88.90
2018-06-03T00:54:39.723Z,88.90
2018-06-03T00:57:11.527Z,89.30
2018-06-03T00:59:40.095Z,89.30
2018-06-03T01:02:08.637Z,89.70
2018-06-03T01:04:37.159Z,89.80
2018-06-03T01:07:05.689Z,90.20
2018-06-03T01:09:34.194Z,90.20
2018-06-03T01:12:02.727Z,90.50
2018-06-03T01:14:31.241Z,90.10
2018-06-03T01:16:59.756Z,90.50
2018-06-03T01:19:28.278Z,90.60
2018-06-03T01:21:56.805Z,90.50
2018-06-03T01:24:25.334Z,90.30
2018-06-03T01:26:53.866Z,90.10
2018-06-03T01:29:22.355Z,90.20
2018-06-03T01:31:50.843Z,90.10
2018-06-03T01:34:19.333Z,90.40
2018-06-03T01:36:47.862Z,90.30
2018-06-03T01:39:16.866Z,90.10
2018-06-03T01:41:45.390Z,90.40
2018-06-03T01:44:13.900Z,90.20
2018-06-03T01:46:42.414Z,90.10
2018-06-03T01:49:10.968Z,90.10
2018-06-03T01:51:39.458Z,90.30
2018-06-03T01:54:08.026Z,90.10
2018-06-03T01:56:36.626Z,89.70
2018-06-03T01:59:05.207Z,90.00
2018-06-03T02:01:33.746Z,90.40
2018-06-03T02:04:02.289Z,90.10
2018-06-03T02:06:30.851Z,90.40
2018-06-03T02:08:59.386Z,90.20
2018-06-03T02:11:27.902Z,90.30
2018-06-03T02:13:56.465Z,90.00
2018-06-03T02:16:24.995Z,90.20
2018-06-03T02:18:53.505Z,90.20
2018-06-03T02:21:22.047Z,90.50
2018-06-03T02:23:50.565Z,90.30
2018-06-03T02:26:19.102Z,90.30
2018-06-03T02:28:47.589Z,90.30
2018-06-03T02:31:16.099Z,90.40
2018-06-03T02:33:44.588Z,90.60
2018-06-03T02:36:13.105Z,90.90
2018-06-03T02:38:41.650Z,90.90
2018-06-03T02:41:10.163Z,91.00
2018-06-03T02:43:38.668Z,91.10
2018-06-03T02:46:07.206Z,91.00
2018-06-03T02:48:35.746Z,90.70
2018-06-03T02:51:04.274Z,90.80
2018-06-03T02:53:32.917Z,90.90
2018-06-03T02:56:01.411Z,90.70
2018-06-03T02:58:29.940Z,90.70
2018-06-03T03:00:58.519Z,90.80
2018-06-03T03:03:27.026Z,90.90
2018-06-03T03:08:23.701Z,90.70
2018-06-03T03:10:52.216Z,90.70
2018-06-03T03:13:20.759Z,91.00
2018-06-03T03:15:49.276Z,90.90
2018-06-03T03:18:17.803Z,90.80
2018-06-03T03:20:46.321Z,90.90
2018-06-03T03:23:14.819Z,91.00
2018-06-03T03:25:43.406Z,91.00
2018-06-03T03:28:11.937Z,90.90
2018-06-03T03:30:40.483Z,91.00
2018-06-03T03:33:08.988Z,91.30
2018-06-03T03:35:37.558Z,91.00
2018-06-03T03:38:06.086Z,91.20
2018-06-03T03:40:34.610Z,91.00
2018-06-03T03:43:03.108Z,91.20
2018-06-03T03:45:31.621Z,91.40
2018-06-03T03:48:00.148Z,91.50
2018-06-03T03:50:28.802Z,91.50
2018-06-03T03:52:57.316Z,91.60
2018-06-03T03:55:25.814Z,91.70
2018-06-03T03:57:54.283Z,91.70
2018-06-03T04:00:23.111Z,91.60
2018-06-03T04:02:51.650Z,91.90
2018-06-03T04:05:20.154Z,91.60
2018-06-03T04:07:48.671Z,91.60
2018-06-03T04:10:17.218Z,91.40
2018-06-03T04:12:45.778Z,91.20
2018-06-03T04:15:14.325Z,91.10
2018-06-03T04:17:42.829Z,90.80
2018-06-03T04:20:11.323Z,90.80
2018-06-03T04:22:39.866Z,90.80
2018-06-03T04:25:08.773Z,91.00
2018-06-03T04:27:37.332Z,90.90
2018-06-03T04:30:06.604Z,91.00
2018-06-03T04:32:35.108Z,90.50
2018-06-03T04:35:03.726Z,90.20
2018-06-03T04:37:32.192Z,90.10
2018-06-03T04:40:00.706Z,89.80
2018-06-03T04:42:29.232Z,89.50
2018-06-03T04:44:57.713Z,89.50
2018-06-03T04:47:26.414Z,89.20
2018-06-03T04:49:54.958Z,89.40
2018-06-03T04:52:23.475Z,89.20
2018-06-03T04:54:51.975Z,88.90
2018-06-03T04:57:20.551Z,88.30
2018-06-03T04:59:49.418Z,88.40
2018-06-03T05:02:17.923Z,88.90
2018-06-03T05:04:46.419Z,88.30
2018-06-03T05:07:14.953Z,88.30
2018-06-03T05:09:43.471Z,88.20
2018-06-03T05:12:12.274Z,88.30
2018-06-03T05:14:40.924Z,87.80
2018-06-03T05:17:09.561Z,88.10
2018-06-03T05:19:38.073Z,88.00
2018-06-03T05:22:06.710Z,87.60
2018-06-03T05:24:35.208Z,87.60
2018-06-03T05:27:03.913Z,87.90
2018-06-03T05:29:32.427Z,87.30
2018-06-03T05:32:00.980Z,87.70
2018-06-03T05:34:29.484Z,87.20
2018-06-03T05:36:57.950Z,87.50
2018-06-03T05:39:26.596Z,87.10
2018-06-03T05:41:55.101Z,87.20
2018-06-03T05:44:23.643Z,87.40
2018-06-03T05:46:52.206Z,87.10
2018-06-03T05:49:20.697Z,87.40
2018-06-03T05:51:49.210Z,87.20
2018-06-03T05:54:17.687Z,87.20
2018-06-03T05:56:46.271Z,87.50
2018-06-03T05:59:14.809Z,87.60
2018-06-03T06:01:43.682Z,86.70
2018-06-03T06:04:12.199Z,86.90
2018-06-03T06:06:40.711Z,86.40
2018-06-03T06:09:09.232Z,87.00
2018-06-03T06:11:37.758Z,86.90
2018-06-03T06:14:06.285Z,87.00
2018-06-03T06:16:34.816Z,86.60
2018-06-03T06:19:03.367Z,86.50
2018-06-03T06:21:31.905Z,85.80
2018-06-03T06:24:00.409Z,86.40
2018-06-03T06:26:28.936Z,86.80
2018-06-03T06:28:57.424Z,86.40
2018-06-03T06:31:25.914Z,86.50
2018-06-03T06:33:54.440Z,85.70
2018-06-03T06:36:22.942Z,85.00
2018-06-03T06:38:51.446Z,85.20
2018-06-03T06:41:19.958Z,84.60
2018-06-03T06:43:48.506Z,84.60
2018-06-03T06:46:17.040Z,84.90
2018-06-03T06:48:45.576Z,84.70
2018-06-03T06:51:14.120Z,83.80
2018-06-03T06:53:42.635Z,83.70
2018-06-03T06:56:11.145Z,82.50
2018-06-03T06:58:39.652Z,81.40
2018-06-03T07:01:08.238Z,82.60
2018-06-03T07:03:36.720Z,82.50
2018-06-03T07:06:08.016Z,82.70
2018-06-03T07:08:36.539Z,82.00
2018-06-03T07:11:05.022Z,81.60
2018-06-03T07:13:33.533Z,81.10
2018-06-03T07:16:02.103Z,80.80
2018-06-03T07:18:30.611Z,81.40
2018-06-03T07:20:59.178Z,80.70
2018-06-03T07:23:27.713Z,79.80
2018-06-03T07:25:56.305Z,79.80
2018-06-03T07:28:24.827Z,79.80
2018-06-03T07:30:53.396Z,78.60
2018-06-03T07:33:21.958Z,80.10
2018-06-03T07:35:50.473Z,78.40
2018-06-03T07:38:21.109Z,79.80
2018-06-03T07:40:49.624Z,79.80
2018-06-03T07:43:18.180Z,79.20
2018-06-03T07:45:46.718Z,78.80
2018-06-03T07:48:15.253Z,79.00
2018-06-03T07:50:43.826Z,80.30
2018-06-03T07:53:12.362Z,78.30
2018-06-03T07:55:40.878Z,79.10
2018-06-03T07:58:09.486Z,78.60
2018-06-03T08:00:38.023Z,79.20
2018-06-03T08:03:06.565Z,77.90
2018-06-03T08:05:35.072Z,78.10
2018-06-03T08:08:03.605Z,77.10
2018-06-03T08:10:32.099Z,76.90
2018-06-03T08:13:00.590Z,76.70
2018-06-03T08:15:29.139Z,75.90
2018-06-03T08:17:57.658Z,77.00
2018-06-03T08:20:26.260Z,76.30
2018-06-03T08:22:54.792Z,77.40
2018-06-03T08:25:23.349Z,77.70
2018-06-03T08:27:51.977Z,78.70
2018-06-03T08:30:20.533Z,78.30
2018-06-03T08:32:49.073Z,78.80
2018-06-03T08:35:17.571Z,78.60
2018-06-03T08:37:46.104Z,78.90
2018-06-03T08:40:14.715Z,78.20
2018-06-03T08:42:43.287Z,77.50
2018-06-03T08:45:11.827Z,78.50
2018-06-03T08:47:40.405Z,79.20
2018-06-03T08:50:08.960Z,77.50
2018-06-03T08:52:37.510Z,78.50
2018-06-03T08:55:06.050Z,79.20
2018-06-03T08:57:34.590Z,77.50
2018-06-03T09:00:03.278Z,77.80
2018-06-03T09:02:31.951Z,77.20
2018-06-03T09:05:00.484Z,78.10
2018-06-03T09:07:29.091Z,76.70
2018-06-03T09:09:57.644Z,76.10
2018-06-03T09:12:26.205Z,75.80
2018-06-03T09:14:55.890Z,75.20
2018-06-03T09:17:24.452Z,74.60
2018-06-03T09:19:53.053Z,74.80
2018-06-03T09:22:21.620Z,76.30
2018-06-03T09:24:50.161Z,76.80
2018-06-03T09:27:18.713Z,75.70
2018-06-03T09:29:47.286Z,75.70
2018-06-03T09:34:44.192Z,75.70
2018-06-03T09:37:12.658Z,75.90
2018-06-03T09:39:41.209Z,76.90
2018-06-03T09:42:09.833Z,77.80
2018-06-03T09:44:38.411Z,77.60
2018-06-03T09:47:07.012Z,76.70
2018-06-03T09:49:35.519Z,76.70
2018-06-03T09:52:04.094Z,77.40
2018-06-03T09:54:32.614Z,76.80
2018-06-03T09:57:01.137Z,76.60
2018-06-03T09:59:29.668Z,76.40
2018-06-03T10:01:58.266Z,76.30
2018-06-03T10:04:26.791Z,77.00
2018-06-03T10:06:55.822Z,76.20
2018-06-03T10:09:24.477Z,76.70
2018-06-03T10:11:52.990Z,76.80
2018-06-03T10:14:21.528Z,77.90
2018-06-03T10:16:50.074Z,77.70
2018-06-03T10:19:18.578Z,79.10
2018-06-03T10:21:47.134Z,77.60
2018-06-03T10:24:15.682Z,78.60
2018-06-03T10:26:44.233Z,78.00
2018-06-03T10:29:12.751Z,78.80
2018-06-03T10:31:41.290Z,78.40
2018-06-03T10:34:09.911Z,77.10
2018-06-03T10:36:38.434Z,77.10
2018-06-03T10:39:07.697Z,77.80
2018-06-03T10:41:36.278Z,78.60
2018-06-03T10:44:05.183Z,78.10
2018-06-03T10:46:33.695Z,77.50
2018-06-03T10:49:05.082Z,78.50
2018-06-03T10:51:34.749Z,78.60
2018-06-03T10:54:03.482Z,77.50
2018-06-03T10:56:32.041Z,77.10
2018-06-03T10:59:00.593Z,78.40
2018-06-03T11:01:29.452Z,77.00
2018-06-03T11:03:58.016Z,77.40
2018-06-03T11:06:27.255Z,76.60
2018-06-03T11:08:55.788Z,76.30
2018-06-03T11:11:24.537Z,77.00
2018-06-03T11:13:53.065Z,77.10
2018-06-03T11:16:21.599Z,76.70
2018-06-03T11:18:50.167Z,77.10
2018-06-03T11:21:18.704Z,77.10
2018-06-03T11:23:47.380Z,77.40
2018-06-03T11:26:15.897Z,76.10
2018-06-03T11:28:44.465Z,75.50
2018-06-03T11:31:13.116Z,76.20
2018-06-03T11:33:41.635Z,77.60
2018-06-03T11:36:10.150Z,76.60
2018-06-03T11:38:39.090Z,76.20
2018-06-03T11:41:07.613Z,75.60
2018-06-03T11:43:36.143Z,75.80
2018-06-03T11:46:04.669Z,74.20
2018-06-03T11:48:33.202Z,74.20
2018-06-03T11:51:01.698Z,73.70
2018-06-03T11:55:58.450Z,74.20
2018-06-03T11:58:54.527Z,74.60
2018-06-03T12:01:23.607Z,74.20
2018-06-03T12:03:52.104Z,75.30
2018-06-03T12:06:20.620Z,76.30
2018-06-03T12:08:49.145Z,76.10
2018-06-03T12:11:17.703Z,77.20
2018-06-03T12:13:46.290Z,76.30
2018-06-03T12:16:14.854Z,75.80
2018-06-03T12:18:43.466Z,76.30
2018-06-03T12:21:11.974Z,77.20
2018-06-03T12:23:40.513Z,77.70
2018-06-03T12:26:09.034Z,77.70
2018-06-03T12:28:37.585Z,76.10
2018-06-03T12:31:06.191Z,76.80
2018-06-03T12:33:34.707Z,76.70
2018-06-03T12:36:03.228Z,77.10
2018-06-03T12:38:31.727Z,76.80
2018-06-03T12:41:00.251Z,77.40
2018-06-03T12:43:28.785Z,78.40
2018-06-03T12:45:57.385Z,77.30
2018-06-03T12:48:25.880Z,76.80
2018-06-03T12:50:54.427Z,77.10
2018-06-03T12:53:22.962Z,76.80
2018-06-03T12:55:51.485Z,76.00
2018-06-03T12:58:19.983Z,77.40
2018-06-03T13:00:48.507Z,77.30
2018-06-03T13:03:17.010Z,77.00
2018-06-03T13:05:45.554Z,77.40
2018-06-03T13:08:14.067Z,77.10
2018-06-03T13:10:42.575Z,74.90
2018-06-03T13:13:11.094Z,74.20
2018-06-03T13:15:39.679Z,74.80
2018-06-03T13:18:08.444Z,73.60
2018-06-03T13:20:37.020Z,74.20
2018-06-03T13:23:05.946Z,73.80
2018-06-03T13:25:34.495Z,73.70
2018-06-03T13:28:03.007Z,73.00
2018-06-03T13:30:31.590Z,71.50
2018-06-03T13:33:00.137Z,72.20
2018-06-03T13:35:28.728Z,72.00
2018-06-03T13:37:57.304Z,72.10
2018-06-03T13:40:25.892Z,72.20
2018-06-03T13:42:54.519Z,72.40
2018-06-03T13:45:23.061Z,73.70
2018-06-03T13:47:51.672Z,72.90
2018-06-03T13:50:20.241Z,71.70
2018-06-03T13:52:48.775Z,72.60
2018-06-03T13:55:17.354Z,70.00
2018-06-03T13:57:46.002Z,71.40
2018-06-03T14:00:14.509Z,71.20
2018-06-03T14:02:43.027Z,69.30
2018-06-03T14:05:11.558Z,70.30
2018-06-03T14:07:40.149Z,68.70
2018-06-03T14:10:08.683Z,68.60
2018-06-03T14:12:37.214Z,68.50
2018-06-03T14:15:05.847Z,68.20
2018-06-03T14:17:34.435Z,68.80
2018-06-03T14:20:03.034Z,68.50
2018-06-03T14:22:31.588Z,67.30
2018-06-03T14:25:00.216Z,68.00
2018-06-03T14:27:28.769Z,68.80
2018-06-03T14:29:57.344Z,69.20
2018-06-03T14:32:26.033Z,70.00
2018-06-03T14:34:54.574Z,70.10
2018-06-03T14:39:51.445Z,70.00
2018-06-03T14:42:19.948Z,71.30
2018-06-03T14:44:48.537Z,70.00
2018-06-03T14:47:17.082Z,71.10
2018-06-03T14:49:45.594Z,69.20
2018-06-03T14:52:14.222Z,68.60
2018-06-03T14:54:42.781Z,69.20
2018-06-03T14:57:11.402Z,67.80
2018-06-03T14:59:39.897Z,67.30
2018-06-03T15:02:08.443Z,65.50
2018-06-03T15:04:37.063Z,65.80
2018-06-03T15:07:05.607Z,66.50
2018-06-03T15:09:34.133Z,67.80
2018-06-03T15:12:02.684Z,66.50
2018-06-03T15:14:31.222Z,68.00
2018-06-03T15:16:59.757Z,67.60
2018-06-03T15:19:28.326Z,68.50
2018-06-03T15:21:56.964Z,67.50
2018-06-03T15:24:25.494Z,66.10
2018-06-03T15:26:54.037Z,67.10
2018-06-03T15:29:22.624Z,66.30
2018-06-03T15:31:51.142Z,67.20
2018-06-03T15:34:19.677Z,68.20
2018-06-03T15:36:48.367Z,68.30
2018-06-03T15:39:17.312Z,68.10
2018-06-03T15:41:45.873Z,69.00
2018-06-03T15:44:14.406Z,68.80
2018-06-03T15:46:43.031Z,68.70
2018-06-03T15:49:11.605Z,68.80
2018-06-03T15:51:42.209Z,68.40
2018-06-03T15:54:10.800Z,68.60
2018-06-03T15:56:39.332Z,68.00
2018-06-03T15:59:07.875Z,69.10
2018-06-03T16:01:36.422Z,70.20
2018-06-03T16:04:04.960Z,69.80
2018-06-03T16:06:33.497Z,69.90
2018-06-03T16:09:02.729Z,70.90
2018-06-03T16:11:31.467Z,70.50
2018-06-03T16:14:00.037Z,69.00
2018-06-03T16:16:28.564Z,70.30
2018-06-03T16:18:57.222Z,69.80
2018-06-03T16:21:25.762Z,70.30
2018-06-03T16:23:54.316Z,69.90
2018-06-03T16:26:22.838Z,69.30
2018-06-03T16:28:53.339Z,69.90
2018-06-03T16:31:21.939Z,70.00
2018-06-03T16:33:50.562Z,69.30
2018-06-03T16:36:19.095Z,70.30
2018-06-03T16:38:47.711Z,70.70
2018-06-03T16:41:16.250Z,70.00
2018-06-03T16:43:44.762Z,69.90
2018-06-03T16:46:13.365Z,70.60
2018-06-03T16:48:41.894Z,71.30
2018-06-03T16:51:10.471Z,71.50
2018-06-03T16:53:39.014Z,70.80
2018-06-03T16:56:07.590Z,70.30
2018-06-03T16:58:36.266Z,70.60
2018-06-03T17:01:04.901Z,70.30
2018-06-03T17:03:33.501Z,69.40
2018-06-03T17:06:02.133Z,70.10
2018-06-03T17:08:30.708Z,69.80
2018-06-03T17:10:59.306Z,70.20
2018-06-03T17:13:27.858Z,70.40
2018-06-03T17:15:56.420Z,69.80
2018-06-03T17:18:25.002Z,69.80
2018-06-03T17:20:53.495Z,70.20
2018-06-03T17:23:22.074Z,71.30
2018-06-03T17:25:51.099Z,70.90
2018-06-03T17:28:19.619Z,71.70
2018-06-03T17:30:48.171Z,71.20
2018-06-03T17:33:16.685Z,70.90
2018-06-03T17:35:45.235Z,71.50
2018-06-03T17:38:13.734Z,71.60
2018-06-03T17:40:42.275Z,71.80
2018-06-03T17:43:10.838Z,71.80
2018-06-03T17:45:39.350Z,71.40
2018-06-03T17:48:07.903Z,71.70
2018-06-03T17:50:36.433Z,72.60
2018-06-03T17:53:04.957Z,72.90
2018-06-03T17:55:33.524Z,73.30
2018-06-03T17:58:02.079Z,73.70
2018-06-03T18:00:30.741Z,74.00
2018-06-03T18:02:59.254Z,74.20
2018-06-03T18:05:27.775Z,74.10
2018-06-03T18:07:56.290Z,74.40
2018-06-03T18:10:24.842Z,74.40
2018-06-03T18:12:53.349Z,74.60
2018-06-03T18:15:21.851Z,74.00
2018-06-03T18:17:50.392Z,73.70
2018-06-03T18:20:18.990Z,74.10
2018-06-03T18:22:47.506Z,74.60
2018-06-03T18:25:16.052Z,74.30
2018-06-03T18:27:44.592Z,74.60
2018-06-03T18:30:13.095Z,74.80
2018-06-03T18:32:42.709Z,74.80
2018-06-03T18:35:11.261Z,74.70
2018-06-03T18:37:39.761Z,75.10
2018-06-03T18:40:08.415Z,75.40
2018-06-03T18:42:37.112Z,75.70
2018-06-03T18:45:06.315Z,75.90
2018-06-03T18:47:34.943Z,76.40
2018-06-03T18:50:04.476Z,76.60
2018-06-03T18:52:33.065Z,76.80
2018-06-03T18:55:01.608Z,77.00
2018-06-03T18:57:30.107Z,77.10
2018-06-03T18:59:58.720Z,77.50
2018-06-03T19:02:27.301Z,78.00
2018-06-03T19:04:58.273Z,78.40
2018-06-03T19:07:26.798Z,78.80
2018-06-03T19:09:55.308Z,79.20
2018-06-03T19:12:23.864Z,79.50
2018-06-03T19:14:52.494Z,79.90
2018-06-03T19:17:20.995Z,80.30
2018-06-03T19:19:49.524Z,80.50
2018-06-03T19:22:18.066Z,80.70
2018-06-03T19:24:46.582Z,80.80
2018-06-03T19:27:15.123Z,81.30
2018-06-03T19:29:43.713Z,81.80
2018-06-03T19:32:12.359Z,81.70
2018-06-03T19:34:40.895Z,81.70
2018-06-03T19:37:09.402Z,82.20
2018-06-03T19:39:37.931Z,82.50
2018-06-03T19:42:06.484Z,83.20
2018-06-03T19:44:35.005Z,83.80
2018-06-03T19:47:03.547Z,84.10
2018-06-03T19:49:32.075Z,84.30
2018-06-03T19:52:01.406Z,84.70
2018-06-03T19:54:29.975Z,85.00
2018-06-03T19:56:58.554Z,85.10
2018-06-03T19:59:27.097Z,85.20
2018-06-03T20:01:55.643Z,85.40
2018-06-03T20:04:24.189Z,85.20
2018-06-03T20:06:52.737Z,85.70
2018-06-03T20:09:21.295Z,85.90
2018-06-03T20:11:49.795Z,85.80
2018-06-03T20:14:18.323Z,85.80
2018-06-03T20:16:46.940Z,86.20
2018-06-03T20:19:16.169Z,86.30
2018-06-03T20:21:44.738Z,86.20
2018-06-03T20:24:13.271Z,86.20
2018-06-03T20:26:41.838Z,86.60
2018-06-03T20:29:10.420Z,86.80
2018-06-03T20:31:38.963Z,86.60
2018-06-03T20:36:35.680Z,88.00
2018-06-03T20:39:06.067Z,87.90
2018-06-03T20:41:34.595Z,88.50
2018-06-03T20:44:03.337Z,88.70
2018-06-03T20:46:31.836Z,88.50
2018-06-03T20:49:00.363Z,88.70
2018-06-03T20:51:28.874Z,88.80
2018-06-03T20:53:57.415Z,88.60
2018-06-03T20:56:25.947Z,88.60
2018-06-03T20:58:54.486Z,88.60
2018-06-03T21:01:23.013Z,88.90
2018-06-03T21:03:51.547Z,89.00
2018-06-03T21:06:20.098Z,89.00
2018-06-03T21:08:48.643Z,89.10
2018-06-03T21:11:17.172Z,89.30
2018-06-03T21:13:45.684Z,89.60
2018-06-03T21:16:14.214Z,89.60
2018-06-03T21:18:42.728Z,89.20
2018-06-03T21:21:11.251Z,89.50
2018-06-03T21:23:39.822Z,89.50
2018-06-03T21:26:08.342Z,89.60
2018-06-03T21:28:36.920Z,89.50
2018-06-03T21:31:05.405Z,89.50
2018-06-03T21:33:33.934Z,89.50
2018-06-03T21:36:02.455Z,89.70
2018-06-03T21:38:30.930Z,89.80
2018-06-03T21:40:59.463Z,89.30
2018-06-03T21:43:27.995Z,89.40
2018-06-03T21:45:56.488Z,89.80
2018-06-03T21:48:24.990Z,89.70
2018-06-03T21:50:53.525Z,89.60
2018-06-03T21:53:22.011Z,89.50
2018-06-03T21:55:50.577Z,89.60
2018-06-03T21:58:19.127Z,89.70
2018-06-03T22:00:47.659Z,90.00
2018-06-03T22:03:16.199Z,90.00
2018-06-03T22:05:44.709Z,89.70
2018-06-03T22:08:13.243Z,90.00
2018-06-03T22:10:41.758Z,89.90
2018-06-03T22:13:10.371Z,90.10
2018-06-03T22:15:38.903Z,90.30
2018-06-03T22:18:07.475Z,90.30
2018-06-03T22:20:36.064Z,90.00
2018-06-03T22:23:04.762Z,89.80
2018-06-03T22:25:33.270Z,90.00
2018-06-03T22:28:01.765Z,90.30
2018-06-03T22:30:30.307Z,90.50
2018-06-03T22:32:58.800Z,90.30
2018-06-03T22:35:27.355Z,90.30
2018-06-03T22:37:55.850Z,90.30
2018-06-03T22:40:24.364Z,90.60
2018-06-03T22:42:52.863Z,90.50
2018-06-03T22:45:21.353Z,90.20
2018-06-03T22:47:49.883Z,90.20
2018-06-03T22:50:18.430Z,90.20
2018-06-03T22:52:46.985Z,90.20
2018-06-03T22:55:15.505Z,90.10
2018-06-03T22:57:53.188Z,90.30
2018-06-03T23:00:25.800Z,90.50
2018-06-03T23:02:59.634Z,91.00
2018-06-03T23:05:28.153Z,91.50
2018-06-03T23:07:56.764Z,92.00
2018-06-03T23:10:25.390Z,91.40
2018-06-03T23:12:54.045Z,91.30
2018-06-03T23:15:22.591Z,92.30
2018-06-03T23:17:51.096Z,91.50
2018-06-03T23:20:19.636Z,91.40
2018-06-03T23:22:48.151Z,91.70
2018-06-03T23:25:16.640Z,92.10
2018-06-03T23:27:45.177Z,92.20
2018-06-03T23:30:13.719Z,92.20
2018-06-03T23:32:42.289Z,92.10
2018-06-03T23:35:10.831Z,92.90
2018-06-03T23:37:39.386Z,92.80
2018-06-03T23:40:07.911Z,92.60
2018-06-03T23:42:36.426Z,92.70
2018-06-03T23:45:05.033Z,93.70
2018-06-03T23:47:33.553Z,94.00
2018-06-03T23:50:02.108Z,93.60
2018-06-03T23:52:30.642Z,93.00
2018-06-03T23:54:59.153Z,94.20
2018-06-03T23:57:27.653Z,93.80
2018-06-03T23:59:56.179Z,93.20
